createdAt,value
2018-01-04T00:02:09.452Z,3.83
2018-01-04T00:04:36.291Z,3.60
2018-01-04T00:07:03.247Z,3.23
2018-01-04T00:09:30.089Z,4.20
2018-01-04T00:11:56.938Z,3.40
2018-01-04T00:14:23.880Z,3.13
2018-01-04T00:16:50.824Z,2.97
2018-01-04T00:19:17.770Z,3.07
2018-01-04T00:21:44.599Z,2.67
2018-01-04T00:24:11.430Z,2.37
2018-01-04T00:26:38.301Z,2.97
2018-01-04T00:29:05.135Z,2.67
2018-01-04T00:31:32.092Z,2.47
2018-01-04T00:33:59.036Z,3.30
2018-01-04T00:36:25.869Z,3.00
2018-01-04T00:38:52.722Z,3.10
2018-01-04T00:41:19.627Z,2.60
2018-01-04T00:43:46.878Z,2.93
2018-01-04T00:46:13.788Z,3.80
2018-01-04T00:48:40.714Z,3.50
2018-01-04T00:51:07.671Z,3.13
2018-01-04T00:53:34.530Z,2.83
2018-01-04T00:56:01.448Z,3.33
2018-01-04T00:58:28.395Z,2.40
2018-01-04T01:00:55.244Z,3.10
2018-01-04T01:03:22.101Z,3.10
2018-01-04T01:05:48.944Z,2.97
2018-01-04T01:08:15.877Z,3.40
2018-01-04T01:10:42.837Z,2.93
2018-01-04T01:13:09.785Z,2.77
2018-01-04T01:15:36.722Z,3.27
2018-01-04T01:18:03.581Z,2.90
2018-01-04T01:20:30.424Z,3.40
2018-01-04T01:22:57.260Z,2.87
2018-01-04T01:25:24.115Z,3.57
2018-01-04T01:27:51.052Z,3.23
2018-01-04T01:30:17.987Z,3.90
2018-01-04T01:32:44.846Z,3.40
2018-01-04T01:35:11.783Z,4.23
2018-01-04T01:37:38.632Z,4.40
2018-01-04T01:40:05.459Z,4.13
2018-01-04T01:42:32.308Z,3.60
2018-01-04T01:44:59.148Z,3.60
2018-01-04T01:47:26.029Z,4.10
2018-01-04T01:49:52.883Z,4.10
2018-01-04T01:52:19.792Z,3.87
2018-01-04T01:54:46.651Z,4.80
2018-01-04T01:57:13.584Z,3.63
2018-01-04T01:59:40.518Z,3.40
2018-01-04T02:02:07.469Z,4.20
2018-01-04T02:04:34.306Z,3.60
2018-01-04T02:07:01.161Z,3.23
2018-01-04T02:09:28.109Z,3.73
2018-01-04T02:11:55.060Z,4.17
2018-01-04T02:14:21.995Z,4.40
2018-01-04T02:16:48.844Z,3.90
2018-01-04T02:19:27.683Z,4.60
2018-01-04T02:22:06.319Z,4.23
2018-01-04T02:24:45.239Z,4.03
2018-01-04T02:27:24.124Z,4.23
2018-01-04T02:30:03.136Z,3.67
2018-01-04T02:32:42.284Z,3.90
2018-01-04T02:38:12.510Z,6.33
2018-01-04T02:43:45.187Z,4.20
2018-01-04T02:46:22.896Z,5.33
2018-01-04T02:48:49.812Z,4.63
2018-01-04T02:51:16.744Z,4.97
2018-01-04T02:53:43.678Z,3.77
2018-01-04T02:56:10.523Z,3.97
2018-01-04T02:58:37.379Z,4.40
2018-01-04T03:01:04.326Z,3.70
2018-01-04T03:03:31.169Z,4.57
2018-01-04T03:05:58.012Z,3.50
2018-01-04T03:08:24.853Z,4.67
2018-01-04T03:10:51.786Z,3.03
2018-01-04T03:13:18.610Z,3.57
2018-01-04T03:15:45.909Z,3.33
2018-01-04T03:18:12.775Z,2.80
2018-01-04T03:20:39.683Z,3.30
2018-01-04T03:23:06.543Z,3.50
2018-01-04T03:25:33.482Z,2.43
2018-01-04T03:28:00.328Z,2.80
2018-01-04T03:30:27.173Z,2.90
2018-01-04T03:32:54.007Z,1.90
2018-01-04T03:35:20.846Z,2.80
2018-01-04T03:37:47.704Z,2.40
2018-01-04T03:40:14.641Z,2.47
2018-01-04T03:42:41.488Z,3.03
2018-01-04T03:45:08.335Z,2.53
2018-01-04T03:47:35.162Z,2.60
2018-01-04T03:50:02.017Z,2.63
2018-01-04T03:52:28.847Z,2.40
2018-01-04T03:54:55.808Z,2.57
2018-01-04T03:57:22.629Z,3.10
2018-01-04T03:59:49.920Z,3.90
2018-01-04T04:02:16.771Z,3.73
2018-01-04T04:04:43.711Z,3.30
2018-01-04T04:07:10.646Z,3.57
2018-01-04T04:09:37.599Z,2.80
2018-01-04T04:12:04.438Z,2.90
2018-01-04T04:14:31.284Z,2.47
2018-01-04T04:16:58.231Z,2.70
2018-01-04T04:19:25.074Z,2.40
2018-01-04T04:21:51.920Z,2.97
2018-01-04T04:24:18.755Z,2.90
2018-01-04T04:26:45.614Z,3.10
2018-01-04T04:29:12.459Z,2.10
2018-01-04T04:31:39.335Z,2.60
2018-01-04T04:34:06.151Z,2.50
2018-01-04T04:36:33.087Z,2.70
2018-01-04T04:38:59.915Z,3.00
2018-01-04T04:41:26.776Z,3.13
2018-01-04T04:43:53.820Z,2.83
2018-01-04T04:46:20.676Z,3.23
2018-01-04T04:48:47.609Z,2.53
2018-01-04T04:51:14.552Z,3.37
2018-01-04T04:53:41.394Z,3.27
2018-01-04T04:56:08.223Z,3.40
2018-01-04T04:58:35.088Z,2.97
2018-01-04T05:01:01.923Z,3.50
2018-01-04T05:03:28.747Z,3.13
2018-01-04T05:05:56.031Z,3.20
2018-01-04T05:08:22.973Z,4.20
2018-01-04T05:10:49.827Z,3.40
2018-01-04T05:13:16.759Z,2.93
2018-01-04T05:15:43.618Z,4.20
2018-01-04T05:18:10.447Z,4.03
2018-01-04T05:20:37.304Z,3.63
2018-01-04T05:23:04.240Z,3.20
2018-01-04T05:25:31.095Z,3.17
2018-01-04T05:27:57.937Z,3.40
2018-01-04T05:30:24.779Z,3.23
2018-01-04T05:32:51.628Z,3.30
2018-01-04T05:35:18.465Z,3.40
2018-01-04T05:37:45.312Z,3.70
2018-01-04T05:40:12.267Z,4.13
2018-01-04T05:42:39.195Z,4.27
2018-01-04T05:45:06.150Z,4.33
2018-01-04T05:47:33.096Z,3.57
2018-01-04T05:49:59.928Z,3.93
2018-01-04T05:52:26.886Z,4.23
2018-01-04T05:54:53.731Z,3.80
2018-01-04T05:57:20.675Z,3.90
2018-01-04T05:59:47.530Z,3.20
2018-01-04T06:02:14.467Z,3.37
2018-01-04T06:04:41.299Z,3.57
2018-01-04T06:07:08.165Z,3.60
2018-01-04T06:09:34.999Z,4.30
2018-01-04T06:12:01.953Z,3.80
2018-01-04T06:14:28.891Z,4.47
2018-01-04T06:16:55.735Z,4.10
2018-01-04T06:19:22.583Z,3.43
2018-01-04T06:21:49.415Z,3.90
2018-01-04T06:24:16.384Z,4.10
2018-01-04T06:26:43.226Z,3.60
2018-01-04T06:29:10.155Z,4.00
2018-01-04T06:31:37.014Z,3.63
2018-01-04T06:34:03.875Z,4.10
2018-01-04T06:36:30.722Z,3.63
2018-01-04T06:38:57.635Z,4.30
2018-01-04T06:41:24.596Z,4.20
2018-01-04T06:43:51.529Z,4.90
2018-01-04T06:46:18.388Z,4.77
2018-01-04T06:48:45.235Z,4.23
2018-01-04T06:51:12.088Z,4.10
2018-01-04T06:53:38.927Z,4.30
2018-01-04T06:56:05.791Z,4.70
2018-01-04T06:58:32.716Z,3.67
2018-01-04T07:00:59.659Z,4.20
2018-01-04T07:03:26.516Z,4.33
2018-01-04T07:05:53.339Z,4.47
2018-01-04T07:08:20.204Z,4.23
2018-01-04T07:10:47.056Z,4.10
2018-01-04T07:13:13.904Z,4.50
2018-01-04T07:15:40.930Z,4.70
2018-01-04T07:18:07.868Z,4.10
2018-01-04T07:20:34.741Z,3.27
2018-01-04T07:23:01.673Z,4.07
2018-01-04T07:25:28.508Z,3.80
2018-01-04T07:27:55.447Z,4.10
2018-01-04T07:30:22.396Z,3.80
2018-01-04T07:32:49.333Z,3.30
2018-01-04T07:35:16.178Z,3.90
2018-01-04T07:37:43.123Z,4.03
2018-01-04T07:40:09.972Z,3.73
2018-01-04T07:42:36.872Z,4.60
2018-01-04T07:45:03.765Z,3.80
2018-01-04T07:47:30.712Z,3.10
2018-01-04T07:49:57.564Z,3.20
2018-01-04T07:52:24.405Z,3.60
2018-01-04T07:54:51.343Z,3.30
2018-01-04T07:57:18.303Z,3.60
2018-01-04T07:59:45.134Z,2.73
2018-01-04T08:02:11.982Z,5.37
2018-01-04T08:04:38.826Z,4.00
2018-01-04T08:07:05.686Z,3.30
2018-01-04T08:09:32.613Z,7.90
2018-01-04T08:11:59.460Z,3.77
2018-01-04T08:14:26.307Z,3.43
2018-01-04T08:16:53.245Z,3.03
2018-01-04T08:19:20.088Z,3.73
2018-01-04T08:21:46.925Z,3.07
2018-01-04T08:24:13.767Z,2.97
2018-01-04T08:26:40.629Z,3.53
2018-01-04T08:29:07.573Z,3.70
2018-01-04T08:31:34.625Z,3.30
2018-01-04T08:34:01.563Z,3.60
2018-01-04T08:36:28.508Z,3.30
2018-01-04T08:38:55.466Z,3.50
2018-01-04T08:41:22.316Z,3.20
2018-01-04T08:43:49.256Z,3.50
2018-01-04T08:46:16.086Z,2.90
2018-01-04T08:48:43.040Z,3.10
2018-01-04T08:51:09.878Z,3.33
2018-01-04T08:53:36.746Z,4.30
2018-01-04T08:56:03.566Z,2.90
2018-01-04T08:58:30.403Z,3.80
2018-01-04T09:00:57.251Z,3.60
2018-01-04T09:03:24.099Z,3.60
2018-01-04T09:05:51.045Z,3.70
2018-01-04T09:08:17.911Z,3.70
2018-01-04T09:10:44.749Z,3.80
2018-01-04T09:13:11.578Z,4.33
2018-01-04T09:15:38.458Z,3.73
2018-01-04T09:18:05.379Z,4.03
2018-01-04T09:20:32.316Z,3.97
2018-01-04T09:22:59.261Z,4.00
2018-01-04T09:25:26.107Z,4.03
2018-01-04T09:27:53.054Z,3.87
2018-01-04T09:30:19.908Z,4.30
2018-01-04T09:32:46.773Z,3.90
2018-01-04T09:35:13.700Z,5.00
2018-01-04T09:37:40.635Z,3.20
2018-01-04T09:40:07.591Z,3.83
2018-01-04T09:42:34.448Z,4.03
2018-01-04T09:45:01.375Z,4.10
2018-01-04T09:47:28.233Z,3.37
2018-01-04T09:49:55.180Z,3.97
2018-01-04T09:52:22.116Z,3.73
2018-01-04T09:54:48.967Z,4.03
2018-01-04T09:57:15.813Z,3.80
2018-01-04T09:59:42.785Z,3.87
2018-01-04T10:02:09.692Z,4.57
2018-01-04T10:04:36.635Z,4.40
2018-01-04T10:07:03.490Z,4.00
2018-01-04T10:09:30.425Z,4.60
2018-01-04T10:11:57.299Z,4.10
2018-01-04T10:14:24.124Z,4.27
2018-01-04T10:16:50.953Z,5.57
2018-01-04T10:19:17.793Z,5.13
2018-01-04T10:21:44.648Z,4.80
2018-01-04T10:24:11.488Z,3.87
2018-01-04T10:26:38.342Z,4.37
2018-01-04T10:29:05.304Z,3.93
2018-01-04T10:31:32.249Z,3.00
2018-01-04T10:33:59.175Z,3.27
2018-01-04T10:36:26.110Z,3.40
2018-01-04T10:38:52.959Z,5.63
2018-01-04T10:41:19.915Z,4.27
2018-01-04T10:43:46.776Z,3.73
2018-01-04T10:46:13.699Z,4.60
2018-01-04T10:48:40.599Z,4.67
2018-01-04T10:51:07.499Z,4.03
2018-01-04T10:53:34.356Z,4.10
2018-01-04T10:56:01.183Z,5.20
2018-01-04T10:58:28.018Z,5.07
2018-01-04T11:00:54.880Z,5.23
2018-01-04T11:03:21.825Z,5.53
2018-01-04T11:05:48.681Z,6.10
2018-01-04T11:08:15.512Z,6.03
2018-01-04T11:10:42.351Z,5.40
2018-01-04T11:13:09.295Z,6.10
2018-01-04T11:15:36.135Z,5.30
2018-01-04T11:18:02.989Z,6.20
2018-01-04T11:20:29.823Z,6.10
2018-01-04T11:22:56.778Z,5.33
2018-01-04T11:25:23.631Z,5.37
2018-01-04T11:27:50.493Z,4.50
2018-01-04T11:30:17.407Z,5.10
2018-01-04T11:32:44.373Z,4.87
2018-01-04T11:35:11.191Z,5.47
2018-01-04T11:37:38.031Z,5.20
2018-01-04T11:40:04.885Z,5.43
2018-01-04T11:42:31.724Z,5.60
2018-01-04T11:44:58.672Z,5.10
2018-01-04T11:47:25.556Z,5.20
2018-01-04T11:49:52.367Z,4.87
2018-01-04T11:52:19.216Z,5.17
2018-01-04T11:54:46.051Z,4.67
2018-01-04T11:57:12.991Z,6.37
2018-01-04T11:59:39.843Z,5.87
2018-01-04T12:02:06.692Z,5.67
2018-01-04T12:04:33.548Z,5.90
2018-01-04T12:07:00.474Z,6.03
2018-01-04T12:09:27.420Z,5.63
2018-01-04T12:11:54.368Z,5.27
2018-01-04T12:14:21.221Z,6.40
2018-01-04T12:19:33.137Z,5.57
2018-01-04T12:22:00.007Z,5.40
2018-01-04T12:24:26.925Z,5.43
2018-01-04T12:26:53.874Z,5.30
2018-01-04T12:29:20.743Z,6.00
2018-01-04T12:31:47.764Z,4.87
2018-01-04T12:34:14.712Z,6.37
2018-01-04T12:36:41.528Z,6.00
2018-01-04T12:39:08.362Z,5.17
2018-01-04T12:41:35.625Z,5.57
2018-01-04T12:44:02.907Z,6.73
2018-01-04T12:46:29.733Z,5.73
2018-01-04T12:48:56.591Z,6.30
2018-01-04T12:51:23.452Z,6.00
2018-01-04T12:53:50.380Z,5.90
2018-01-04T12:56:17.241Z,6.20
2018-01-04T12:58:44.258Z,6.67
2018-01-04T13:01:11.203Z,6.00
2018-01-04T13:03:38.068Z,5.77
2018-01-04T13:06:04.955Z,6.43
2018-01-04T13:08:31.765Z,7.13
2018-01-04T13:10:58.694Z,6.17
2018-01-04T13:13:25.517Z,6.70
2018-01-04T13:15:52.426Z,7.53
2018-01-04T13:18:19.227Z,7.93
2018-01-04T13:20:46.060Z,7.17
2018-01-04T13:23:13.015Z,7.43
2018-01-04T13:25:39.863Z,7.73
2018-01-04T13:28:06.711Z,7.20
2018-01-04T13:30:33.658Z,8.27
2018-01-04T13:33:00.509Z,8.33
2018-01-04T13:35:27.351Z,7.10
2018-01-04T13:37:54.297Z,7.07
2018-01-04T13:40:21.231Z,7.90
2018-01-04T13:42:48.072Z,7.47
2018-01-04T13:45:14.928Z,8.37
2018-01-04T13:47:41.872Z,7.70
2018-01-04T13:50:08.812Z,8.60
2018-01-04T13:52:36.069Z,9.37
2018-01-04T13:55:02.903Z,8.43
2018-01-04T13:57:29.875Z,8.43
2018-01-04T13:59:56.702Z,8.67
2018-01-04T14:02:23.658Z,9.00
2018-01-04T14:04:50.525Z,7.23
2018-01-04T14:07:17.437Z,7.70
2018-01-04T14:09:44.656Z,7.50
2018-01-04T14:12:11.897Z,8.73
2018-01-04T14:14:38.894Z,8.10
2018-01-04T14:17:05.752Z,8.90
2018-01-04T14:19:32.695Z,8.17
2018-01-04T14:21:59.627Z,8.30
2018-01-04T14:24:26.468Z,10.73
2018-01-04T14:26:53.299Z,8.13
2018-01-04T14:29:20.166Z,8.20
2018-01-04T14:31:47.116Z,8.90
2018-01-04T14:34:14.053Z,8.03
2018-01-04T14:36:40.904Z,9.47
2018-01-04T14:39:07.847Z,7.70
2018-01-04T14:41:34.704Z,7.47
2018-01-04T14:44:01.632Z,8.73
2018-01-04T14:46:28.477Z,8.30
2018-01-04T14:48:55.325Z,8.07
2018-01-04T14:51:22.175Z,8.60
2018-01-04T14:53:49.012Z,8.80
2018-01-04T14:56:15.954Z,8.07
2018-01-04T14:58:42.803Z,9.50
2018-01-04T15:01:09.759Z,9.47
2018-01-04T15:03:36.698Z,11.33
2018-01-04T15:06:03.537Z,9.00
2018-01-04T15:08:30.440Z,9.43
2018-01-04T15:10:57.335Z,8.40
2018-01-04T15:13:24.159Z,9.20
2018-01-04T15:15:51.123Z,8.40
2018-01-04T15:18:17.978Z,8.70
2018-01-04T15:20:44.807Z,9.20
2018-01-04T15:23:11.655Z,8.80
2018-01-04T15:25:38.492Z,9.37
2018-01-04T15:28:05.361Z,9.17
2018-01-04T15:30:32.299Z,10.40
2018-01-04T15:32:59.154Z,11.43
2018-01-04T15:35:26.075Z,12.53
2018-01-04T15:37:53.024Z,11.30
2018-01-04T15:40:19.851Z,11.57
2018-01-04T15:42:46.702Z,12.80
2018-01-04T15:45:13.580Z,14.47
2018-01-04T15:47:40.512Z,13.70
2018-01-04T15:50:07.363Z,11.13
2018-01-04T15:52:34.298Z,10.73
2018-01-04T15:55:01.240Z,10.70
2018-01-04T15:57:28.087Z,9.83
2018-01-04T15:59:55.032Z,11.03
2018-01-04T16:02:21.979Z,11.23
2018-01-04T16:04:48.819Z,14.33
2018-01-04T16:07:15.680Z,11.63
2018-01-04T16:09:42.623Z,12.30
2018-01-04T16:12:09.480Z,12.33
2018-01-04T16:14:36.338Z,11.20
2018-01-04T16:17:03.240Z,12.87
2018-01-04T16:19:30.105Z,11.33
2018-01-04T16:21:57.041Z,12.33
2018-01-04T16:24:24.085Z,11.87
2018-01-04T16:26:50.924Z,11.80
2018-01-04T16:29:17.777Z,10.67
2018-01-04T16:31:44.724Z,12.20
2018-01-04T16:34:11.599Z,11.43
2018-01-04T16:36:38.460Z,12.30
2018-01-04T16:39:05.353Z,11.20
2018-01-04T16:41:32.195Z,12.20
2018-01-04T16:43:59.033Z,10.90
2018-01-04T16:46:25.985Z,10.90
2018-01-04T16:48:52.830Z,12.57
2018-01-04T16:51:19.676Z,12.53
2018-01-04T16:53:46.532Z,12.70
2018-01-04T16:56:13.369Z,14.33
2018-01-04T16:58:40.230Z,12.23
2018-01-04T17:01:07.164Z,13.60
2018-01-04T17:03:34.100Z,14.20
2018-01-04T17:06:01.328Z,13.23
2018-01-04T17:08:28.219Z,14.80
2018-01-04T17:10:55.157Z,14.13
2018-01-04T17:13:22.000Z,14.50
2018-01-04T17:15:49.140Z,14.03
2018-01-04T17:18:16.003Z,14.50
2018-01-04T17:20:42.862Z,13.03
2018-01-04T17:23:09.788Z,13.10
2018-01-04T17:25:36.616Z,12.20
2018-01-04T17:28:03.472Z,11.80
2018-01-04T17:30:30.304Z,11.80
2018-01-04T17:32:57.264Z,13.50
2018-01-04T17:35:24.204Z,15.63
2018-01-04T17:37:51.147Z,14.37
2018-01-04T17:40:18.000Z,14.60
2018-01-04T17:42:44.979Z,15.43
2018-01-04T17:45:11.814Z,14.07
2018-01-04T17:47:38.684Z,14.90
2018-01-04T17:50:05.984Z,13.63
2018-01-04T17:52:32.924Z,13.73
2018-01-04T17:54:59.900Z,13.07
2018-01-04T17:57:26.824Z,14.27
2018-01-04T17:59:53.664Z,14.07
2018-01-04T18:02:20.526Z,13.17
2018-01-04T18:04:47.483Z,12.27
2018-01-04T18:07:14.396Z,14.20
2018-01-04T18:09:41.346Z,12.97
2018-01-04T18:12:08.190Z,17.60
2018-01-04T18:14:35.144Z,16.73
2018-01-04T18:17:02.080Z,15.47
2018-01-04T18:19:28.919Z,16.93
2018-01-04T18:21:55.787Z,18.23
2018-01-04T18:24:22.616Z,20.10
2018-01-04T18:26:49.563Z,18.67
2018-01-04T18:29:16.420Z,18.33
2018-01-04T18:31:43.272Z,15.03
2018-01-04T18:34:10.127Z,18.30
2018-01-04T18:36:37.041Z,16.37
2018-01-04T18:39:03.909Z,17.10
2018-01-04T18:41:30.752Z,15.67
2018-01-04T18:43:57.584Z,17.00
2018-01-04T18:46:24.522Z,16.37
2018-01-04T18:48:51.370Z,16.80
2018-01-04T18:51:18.311Z,15.40
2018-01-04T18:53:45.157Z,14.53
2018-01-04T18:56:12.108Z,15.50
2018-01-04T18:58:38.940Z,14.80
2018-01-04T19:01:06.002Z,15.17
2018-01-04T19:03:32.826Z,16.27
2018-01-04T19:05:59.700Z,14.60
2018-01-04T19:08:26.631Z,21.70
2018-01-04T19:10:53.468Z,18.23
2018-01-04T19:13:20.311Z,18.57
2018-01-04T19:15:47.159Z,22.80
2018-01-04T19:18:14.104Z,18.70
2018-01-04T19:20:41.051Z,19.70
2018-01-04T19:23:07.903Z,18.60
2018-01-04T19:25:34.848Z,17.83
2018-01-04T19:28:01.743Z,20.67
2018-01-04T19:30:29.084Z,16.90
2018-01-04T19:32:56.012Z,15.60
2018-01-04T19:35:22.886Z,15.50
2018-01-04T19:37:49.730Z,16.63
2018-01-04T19:40:16.559Z,18.23
2018-01-04T19:42:43.423Z,16.57
2018-01-04T19:45:10.722Z,17.23
2018-01-04T19:47:37.534Z,15.70
2018-01-04T19:50:04.391Z,16.30
2018-01-04T19:52:31.232Z,15.20
2018-01-04T19:54:58.099Z,14.97
2018-01-04T19:57:25.044Z,15.30
2018-01-04T19:59:51.892Z,14.00
2018-01-04T20:02:18.760Z,12.70
2018-01-04T20:04:45.602Z,11.23
2018-01-04T20:07:12.464Z,11.53
2018-01-04T20:09:39.367Z,11.60
2018-01-04T20:12:06.313Z,11.13
2018-01-04T20:14:33.271Z,10.20
2018-01-04T20:17:00.213Z,10.90
2018-01-04T20:19:27.067Z,9.63
2018-01-04T20:21:53.907Z,9.97
2018-01-04T20:24:20.748Z,5.13
2018-01-04T20:26:47.647Z,4.57
2018-01-04T20:29:14.935Z,3.97
2018-01-04T20:31:41.791Z,3.87
2018-01-04T20:34:08.740Z,2.83
2018-01-04T20:36:35.576Z,3.23
2018-01-04T20:39:02.480Z,3.53
2018-01-04T20:41:29.715Z,3.13
2018-01-04T20:43:56.618Z,3.53
2018-01-04T20:46:23.468Z,3.63
2018-01-04T20:48:50.324Z,3.27
2018-01-04T20:51:17.266Z,3.90
2018-01-04T20:53:44.195Z,3.40
2018-01-04T20:56:11.058Z,3.70
2018-01-04T20:58:37.903Z,3.87
2018-01-04T21:01:04.843Z,3.83
2018-01-04T21:03:31.676Z,3.73
2018-01-04T21:05:58.539Z,4.30
2018-01-04T21:08:25.478Z,3.13
2018-01-04T21:10:52.307Z,3.43
2018-01-04T21:13:19.267Z,3.90
2018-01-04T21:15:46.104Z,3.27
2018-01-04T21:18:12.948Z,4.60
2018-01-04T21:20:39.893Z,4.10
2018-01-04T21:23:06.842Z,3.40
2018-01-04T21:25:33.682Z,3.43
2018-01-04T21:28:00.547Z,3.40
2018-01-04T21:30:27.383Z,3.90
2018-01-04T21:32:54.216Z,3.23
2018-01-04T21:35:21.092Z,3.40
2018-01-04T21:37:47.923Z,3.73
2018-01-04T21:40:14.851Z,2.90
2018-01-04T21:42:41.904Z,3.50
2018-01-04T21:45:08.851Z,3.23
2018-01-04T21:47:35.681Z,3.23
2018-01-04T21:50:02.635Z,3.20
2018-01-04T21:52:29.579Z,4.20
2018-01-04T21:54:56.419Z,2.77
2018-01-04T21:57:23.382Z,3.10
2018-01-04T21:59:50.208Z,3.80
2018-01-04T22:02:17.167Z,3.40
2018-01-04T22:04:44.008Z,2.77
2018-01-04T22:07:10.944Z,2.63
2018-01-04T22:09:37.902Z,3.80
2018-01-04T22:12:04.751Z,2.53
2018-01-04T22:14:31.591Z,2.80
2018-01-04T22:16:58.449Z,3.80
2018-01-04T22:19:25.284Z,3.10
2018-01-04T22:21:52.236Z,3.93
2018-01-04T22:24:19.091Z,3.30
2018-01-04T22:26:45.943Z,4.13
2018-01-04T22:29:12.763Z,3.20
2018-01-04T22:31:39.699Z,3.20
2018-01-04T22:34:06.536Z,2.60
2018-01-04T22:36:33.376Z,5.70
2018-01-04T22:39:00.338Z,4.10
2018-01-04T22:41:27.195Z,4.93
2018-01-04T22:43:54.163Z,3.53
2018-01-04T22:46:21.072Z,3.47
2018-01-04T22:48:47.927Z,3.10
2018-01-04T22:51:14.869Z,3.50
2018-01-04T22:53:41.808Z,4.30
2018-01-04T22:56:08.653Z,4.83
2018-01-04T22:58:35.488Z,3.37
2018-01-04T23:01:02.319Z,4.03
2018-01-04T23:03:29.186Z,4.80
2018-01-04T23:05:56.023Z,4.07
2018-01-04T23:08:23.031Z,3.67
2018-01-04T23:10:49.827Z,3.87
2018-01-04T23:13:16.763Z,3.70
2018-01-04T23:15:43.597Z,4.23
2018-01-04T23:18:10.432Z,3.17
2018-01-04T23:20:37.707Z,3.67
2018-01-04T23:23:04.553Z,3.50
2018-01-04T23:25:31.496Z,3.70
2018-01-04T23:27:58.326Z,4.67
2018-01-04T23:30:25.194Z,3.60
2018-01-04T23:32:52.062Z,3.70
2018-01-04T23:35:18.980Z,3.20
2018-01-04T23:37:45.820Z,4.47
2018-01-04T23:40:12.672Z,4.03
2018-01-04T23:42:39.611Z,3.70
2018-01-04T23:45:06.455Z,3.50
2018-01-04T23:47:33.292Z,2.77
2018-01-04T23:50:00.248Z,2.80
2018-01-04T23:52:27.191Z,3.10
2018-01-04T23:54:54.093Z,4.30
2018-01-04T23:57:20.988Z,4.27
2018-01-04T23:59:47.828Z,4.80
